首页 怪兽饮料(usMNST)-基本信息

怪兽饮料(usMNST)-基本信息

日报更新时间:04-17 11:30

周报更新时间:04-18 04:06

行情信息

今开价:96.63

最高价:98.43

成交量:4256263.0

昨收价:95.95

最低价:96.13

最新价:98.17

行情图标
概要信息

中文名称:怪兽饮料


英文名称:Monster Beverage


简介:怪物饮料公司,原名为汉森天然公司,在美国特拉华州注册成立于1990年4月25日


电话:1-951-7396200,1-800-4267367


最新量化综合结论
百科信息
  • 相关网站
  • 百科
  • 员工交易记录
  • 持股信息
  • 领导人信息
  • 股东信息

Monster Beverage Corporation是一家饮料生产和销售商,旗下品牌众多,包括:Nalu、Burn、NOS、Ultra、Mother、Relentless、BU、BPM、M3、Samurai、Gladiator、Monster Energy、Monster Rehab、Monster Energy Extra Strength Nitrous Technology、Juice Monster、Java Monster、Muscle Monster、Mega Monster Energy、Punch Monster、Play and Power Play、Übermonster、Full Throttle等。

交易日期 交易人 职位 类型 交易份额 价格
2019-06-09 Carling (Guy) Officer Sell 24000 65.82
2019-06-09 Carling (Guy) Officer Buy 10500 37.10
2019-06-09 Carling (Guy) Officer Buy 13500 23.00
2019-06-04 Selati (Sydney) Director Buy 3123 --
2019-06-04 Vidergauz (Mark S) Director Buy 3123 --
2019-05-20 Kelly (Thomas J) Officer Buy 19089 15.71
2019-05-20 Kelly (Thomas J) Officer Buy 4281 23.35
2019-05-20 Kelly (Thomas J) Officer Sell 4704 63.74
2019-05-20 Kelly (Thomas J) Officer Sell 1568 63.74
2019-05-09 Tirre (Emelie) Officer Sell 24762 62.70
2019-05-09 Tirre (Emelie) Officer Buy 24762 19.08
2019-05-07 Hall (Mark J) Director Buy 40000 43.64
2019-05-07 Hall (Mark J) Director Buy 22719 23.35
2019-05-07 Hall (Mark J) Director Buy 90000 43.99
2019-05-07 Hall (Mark J) Director Buy 60000 45.16
2019-05-07 Hall (Mark J) Director Sell 212719 61.69
2019-05-06 Hall (Mark J) Director Buy 180000 45.16
2019-05-06 Hall (Mark J) Director Sell 181622 61.45
2019-05-06 Hall (Mark J) Director Buy 4281 23.35
2019-03-13 Schlosberg (Hilton Hiller) President Buy 38700 --
2019-03-13 Schlosberg (Hilton Hiller) President Buy 8110 --
2019-03-13 Schlosberg (Hilton Hiller) President Buy 34066 --
2019-03-13 Sacks (Rodney Cyril) Chief Executive Officer Buy 34066 --
2019-03-13 Kelly (Thomas J) Officer Sell 25719 59.68
2019-03-13 Kelly (Thomas J) Officer Buy 25719 23.35

机构持股
持有者 持有份额 持股比例 份额变化 变化率 报告日期
Goldman Sachs Asset Management, L.P. 5172444 0.95% 1615578 45.42% 2019-03-31
Wellington Management Company LLP 14904985 2.74% -1709073 -10.29% 2019-03-31
State Street Corporation 17721394 3.26% 827087 4.90% 2019-03-31
Loomis Sayles & Company LP 23099647 4.25% 187996 0.82% 2019-03-31
Fidelity Management & Research Company 24246553 4.45% -265758 -1.08% 2019-07-31
BlackRock Inc 24565595 4.52% -555113 -2.21% 2019-03-31
Fidelity Management and Research Company 29948928 5.51% -1124256 -3.62% 2019-03-31
FMR Inc 30444977 5.60% -1125874 -3.57% 2019-03-31
Vanguard Group Inc 31740775 5.84% 317899 1.01% 2019-03-31
AllianceBernstein L.P. 13318538 2.45% -3201325 -19.38% 2019-03-31
Vanguard Investments Australia Ltd 11044106 2.03% -491266 -4.26% 2019-07-31
Sands Capital Management, LLC 10503400 1.93% -615577 -5.54% 2019-03-31
Fidelity Management Trust Co 5799643 1.06% 66452 1.16% 2019-07-31
State Street Global Advisors 6609175 1.21% -5621 -0.08% 2019-07-31
Invesco Capital Management LLC 6658547 1.22% -70242 -1.04% 2019-07-31
Bank of America Corporation 6726465 1.24% -348315 -4.92% 2019-03-31
BlackRock Fund Advisors 7132111 1.31% -1351 -0.02% 2019-07-31
Renaissance Technologies Corp 7210304 1.33% 2558573 55.00% 2019-03-31
Goldman Sachs Group Inc 7238277 1.33% 2142979 42.06% 2019-03-31
TIAA-CREF Investment Management LLC 7636443 1.40% 440936 6.13% 2019-03-31
Amvescap Plc. 6684197 1.23% 178045 2.74% 2018-12-31
BlackRock Asset Management Canada Ltd 12073446 2.22% 14726 0.12% 2019-05-31
Geode Capital Management, LLC 10670920 1.96% 5624800 111.47% 2018-12-31
Bank of New York Mellon Corp 5386008 0.99% -127262 -2.31% 2018-12-31
Franklin Resources Inc 5070887 0.93% -702920 -12.17% 2018-09-30
Tybourne Capital Management (HK) Ltd 5027717 0.91% 5027717 -- 2018-06-30
Franklin Advisers, Inc. 5093017 0.92% 170499 3.46% 2018-06-30
BlackRock Institutional Trust Company NA 9965848 1.80% -1151377 -10.36% 2018-06-30
ING Investment Management LLC 5468514 0.99% 1071066 24.36% 2018-06-30
Jennison Associates LLC 10550069 1.91% -1682800 -13.76% 2018-06-30
State Street Corp 16249093 2.94% -14503 -0.09% 2018-06-30
AllianceBernstein LP 8398136 1.52% 310523 3.84% 2018-06-30
Managed Account Advisors LLC 6213769 1.12% -911387 -12.79% 2018-06-30
Invesco PowerShares Capital Mgmt LLC 5976230 1.08% 1123600 23.15% 2018-06-30
Franklin Advisers Inc 5093017 0.92% 170499 3.46% 2018-06-30
State Street Global Advisors (Aus) Ltd 4728636 0.86% 111214 2.41% 2018-09-12
Northern Trust Investments N A 5030444 0.91% 160256 3.29% 2018-06-30
BROADWOOD CAPITAL Inc 4773708 0.86% -- -- 2018-06-30
Coca-Cola Co 102121602 18.03% 68081068 200.00% 2018-03-16
Columbia Mangmt Investment Advisers, LLC 7374540 1.31% 609245 9.01% 2018-03-31
J.P. Morgan Investment Management Inc 5226827 0.93% -207418 -3.82% 2018-03-31
DSM Capital Partners LLC 4240605 0.75% -427540 -9.16% 2018-03-31
American Century Inv Mgt Inc 4794735 0.85% -250139 -4.96% 2017-12-31
Artisan Partners Limited Partnership 4748537 0.84% -224615 -4.52% 2017-09-30
Lone Pine Capital LLC 4149493 2.18% 7918 0.19% 2016-09-30
Sterling Trustees LLC 10089222 4.97% -370392 -3.54% 2016-04-14
Hilton H. Schlosberg 18054928 6.00% 2147483647 0.10% 1999-11-30
FMR LLC 17972636 6.00% 2147483647 0.10% 1999-11-30
Rodney C. Sacks 16810207 6.00% 2147483647 0.10% 1999-11-30
The Vanguard Group 11294453 6.00% 1450038348 0.10% 1999-11-30
Wellington Management Company, LLP 11188295 6.00% 1436409254 -- 1999-11-30
The Coca-Cola Company 34040534 6.00% 2147483647 0.20% 1999-11-30
共同基金持股
持有者 持有份额 持股比例 份额变化 变化率 报告日期
AB American Growth Portfolio 1879462 0.34% -86270 -4.39% 2019-06-30
Vanguard Total Stock Market Index Fund 10880557 2.00% -491386 -4.32% 2019-06-30
Vanguard 500 Index Fund 7699226 1.41% 84123 1.10% 2019-06-30
AB Large Cap Growth Fund 5227717 0.96% 44590 0.86% 2019-06-30
Invesco QQQ Trust 4882099 0.90% 4312 0.09% 2019-07-31
Loomis Sayles Growth Fund 4837840 0.89% 86744 1.83% 2019-06-30
Fidelity Growth Company Commingled Pool 4450042 0.82% -- -- 2019-06-30
SPDR 4365573 0.80% -11985 -0.27% 2019-07-31
Vanguard Institutional Index Fund 3654391 0.67% -22443 -0.61% 2019-06-30
CREF Growth Account 3336783 0.61% -7235 -0.22% 2019-06-30
CREF Stock Account 3289282 0.60% -3535 -0.11% 2019-06-30
JPMorgan Large Cap Growth Fund 1927550 0.35% -- -- 2019-06-30
AllianceBernstein US L/C Growth Eqty MF 2657519 0.49% -31320 -1.16% 2019-06-28
Franklin Growth Fund 2672700 0.49% -- -- 2019-06-30
Vanguard Growth Index Fund 2719023 0.50% -146745 -5.12% 2019-06-30
iShares Core S&P 500 ETF 2867805 0.53% -1416 -0.05% 2019-07-30
Consumer Staples Select Sector SPDR 3081305 0.57% 82768 2.76% 2019-07-31
Fidelity 3169303 0.58% 49216 1.58% 2019-06-30
Franklin Growth Fd 2672700 0.49% -- -- 2019-06-30
iShares Core MSCI Kokusai ETF 2879622 0.53% 2585 0.09% 2019-05-30
iShares Core S&P US Total Market ETF 2879622 0.53% 2585 0.09% 2019-05-30
iShares Core S&P 500 ETF (CAD-Hedged) 2879622 0.53% 2585 0.09% 2019-05-30
iShares S&P 500 ETF 2879622 0.53% 2585 0.09% 2019-05-30
iShares MSCI World ETF 2868577 0.53% 940 0.03% 2019-05-23
Janus Henderson Research Fund 2158942 0.40% 360115 20.02% 2018-12-31
Undrly L&G Pen PMC Diversified 1713830 0.32% 1713830 -- 2018-09-30
OH Putnam Fidelity Spartan 500 Index 2982635 0.55% 86299 2.98% 2019-01-31
RI CBF AllianceBern Large Cap Gr Por 5671137 1.04% -155670 -2.67% 2018-12-31
Undrly L&G Diversified Life 1713830 0.31% 1713830 -- 2018-09-30
Hartford Growth Opportunities Fund 1722639 0.31% -155773 -8.29% 2018-12-31
Waddell & Reed Advisor Core InvestmentFd 1706600 0.31% 182300 11.96% 2017-09-30
Vanguard Total Stock Mkt Idx 10600311 1.92% 43476 0.41% 2018-07-31
Vanguard 500 Index Inv 7439030 1.35% 10686 0.14% 2018-07-31
Loomis Sayles Growth Y 5241965 0.95% -49429 -0.93% 2018-07-31
PowerShares QQQ ETF 4610132 0.81% -17820 -0.39% 2018-09-13
CREF Stock R1 4458180 0.81% -121124 -2.65% 2018-07-31
Harbor Capital Appreciation Instl 4611367 0.83% -1073969 -18.89% 2018-06-30
Vanguard Institutional Index I 3975289 0.72% 6380 0.16% 2018-07-31
CREF Growth R1 3287958 0.60% 9231 0.28% 2018-07-31
Voya Large Cap Growth Port S 2238801 0.41% 536599 31.52% 2018-06-30
JPMorgan Large Cap Growth Select 2144950 0.39% 34500 1.63% 2018-07-31
Franklin Growth Fund A 2700000 0.49% -- -- 2018-07-31
Fidelity Spartan 2736139 0.50% 32273 1.19% 2018-07-31
Vanguard Growth Index Inv 2972265 0.54% -8666 -0.29% 2018-07-31
RI CBF AllianceBern Large Cap Gr Port RZ 3106129 0.56% -120120 -3.72% 2018-07-31
MFS Growth B 2083641 0.37% -- -- 2018-04-30
AST Loomis Sayles Large Cap Growth Port 1956192 0.35% -16753 -0.85% 2017-12-31
Artisan Mid Cap Investor 2450219 0.43% -174057 -6.63% 2017-09-30
Columbia Select Large Cap Growth Z 2773704 0.49% -186696 -6.31% 2016-12-31
Fidelity® Series Growth Company Fund 1058700 0.50% -- -- 2015-09-30
Fidelity® Low-Priced Stock Fund 2486400 1.20% -79900 -3.10% 2015-07-31
Columbia Select Large Cap Growth Fund 2344050 1.20% 143060 6.50% 2015-09-30
PowerShares QQQ 1647605 0.90% -13080 -0.80% 2015-11-19
Vanguard Mid-Cap Index Fund 1584365 0.80% 7514 0.50% 2015-10-31
SPDR® S&P 500 ETF 1478980 0.80% 11094 0.80% 2015-11-19
SPDR® S&P 500® ETF Trust 1349860 0.70% -- -- 2015-09-30
Harbor Capital Appreciation Fund 1252536 0.60% 267206 27.10% 2015-09-30
Fidelity® Blue Chip Growth Fund 1117635 0.60% -2500 -0.20% 2015-09-30
Fidelity® Growth Company Fund 3750306 1.80% -41000 -1.10% 2015-09-30

罗德尼·C·萨克斯 罗德尼·C·萨克斯先生1990年11月以来任怪物饮料公司董事长,首席执行官。从1992年6月到现在他是公司董事长。萨克斯先生已经领导公司长达22年,他在食品和饮料行业经验丰富。
希尔顿·H·肖斯波格 希尔顿·H·肖斯波格先生是公司董事会副主席、总裁、首席财务官、首席运营官。从1990年11月到现在他任副董事长,总裁,首席运营官,秘书,和公司的董事。自1996年7月任首席财务官。1992年7月到现在他任公司副主席、秘书和董事
马克·J·霍尔 马克·J·霍尔先生是怪物饮料公司总裁, 1997年他加入MEC。在此之前,霍尔先生受雇于亚利桑那州饮料有限公司,任销售副总裁,他负责在美国通过国家网络销售和分销啤酒和软饮料产品。
托马斯·J·凯利 托马斯·J·凯利先生是公司金融高级副总裁,总监和秘书。他自1992年以来加入怪物饮料集团的子公司MEC。加入MEC前,凯利担任加州Copackers公司总监。

罗德尼·C·萨克斯 罗德尼·C·萨克斯先生1990年11月以来任怪物饮料公司董事长,首席执行官。从1992年6月到现在他是公司董事长。萨克斯先生已经领导公司长达22年,他在食品和饮料行业经验丰富。
希尔顿·H·肖斯波格 希尔顿·H·肖斯波格先生是公司董事会副主席、总裁、首席财务官、首席运营官。从1990年11月到现在他任副董事长,总裁,首席运营官,秘书,和公司的董事。自1996年7月任首席财务官。1992年7月到现在他任公司副主席、秘书和董事
诺曼·C·爱泼斯坦 诺曼·C·爱泼斯坦先生自1992年6月以来任怪物饮料公司独立董事。爱波斯坦是薪酬委员会的主席。他1992年7月以来任MEC主管。1997年到2006年任Cheval Property Finance PLC董事总经理,这是一家抵押贷款融资公司,总部在英国伦敦。
本杰明·M·波尔克 本杰明·M·波尔克先生自1990年11月任怪物饮料公司独立董事。他自1992年10月和1992年7月任MEC助理主任。自2011年7月他任Veritas Capital公司合伙人,这是一家私人股本公司。
西德尼·塞拉提 西德尼·塞拉提自2004年9月任怪物饮料公司独立董事。塞拉提先生自2010年7月起任圣地亚哥犹太社区基金会主管。他1997年到2005年任Barbeques Galore公司董事,1988年到2005年任Galore Group总裁和董事会主席。
马克·S·韦德高茨 马克·S·韦德高茨先生自1998年6月任怪物饮料公司独立董事。他从2000年4月到现在任Sage Group公司首席执行官,这是一家投资银行公司。从1995年4月到2000年4月他任ING Barings LLC办事处总经理。

量化对比

全部评论 1

  • 过去30年来标普500指数中表现最佳的股票一览:亚马逊、怪物饮料(Monster Beverage)和杰克亨利(Jack Henry & Associates Inc.)位列前三甲,苹果位列第15。

阿布量化公众号二维码 abu_quant 扫一扫关注阿布量化

热门推荐